Time;durP1;ratioP1;P1;durP2;ratioP2;P2;SDS_P1;SDS_P2;PMS_P1;PMS_P2;Temp;Humidity;BMP_temperature;BMP_pressure;BME280_temperature;BME280_humidity;BME280_pressure;Samples;Min_cycle;Max_cycle;Signal;HPM_P1;HPM_P2
2022/08/06 00:02:32;;;;;;;4.43;2.80;;;;;;;;;;5084660;28;20184;-56
2022/08/06 00:04:58;;;;;;;3.10;2.60;;;;;;;;;;5068385;28;20192;-57
2022/08/06 00:07:25;;;;;;;5.17;2.60;;;;;;;;;;5070286;28;20700;-55
2022/08/06 00:09:51;;;;;;;5.20;2.60;;;;;;;;;;5094264;28;20227;-57
2022/08/06 00:12:17;;;;;;;2.57;2.13;;;;;;;;;;5089420;28;20551;-57
2022/08/06 00:14:44;;;;;;;2.50;2.23;;;;;;;;;;5088790;28;20266;-57
2022/08/06 00:17:10;;;;;;;4.07;2.40;;;;;;;;;;5087864;28;20444;-57
2022/08/06 00:19:36;;;;;;;2.77;2.57;;;;;;;;;;5085701;28;20232;-58
2022/08/06 00:22:02;;;;;;;9.23;2.97;;;;;;;;;;5098993;28;20421;-57
2022/08/06 00:24:28;;;;;;;2.77;2.20;;;;;;;;;;5088335;28;20576;-57
2022/08/06 00:26:54;;;;;;;4.40;2.73;;;;;;;;;;5086114;28;20204;-56
2022/08/06 00:29:20;;;;;;;4.60;2.50;;;;;;;;;;5098428;28;20538;-57
2022/08/06 00:31:46;;;;;;;3.70;2.80;;;;;;;;;;5086961;28;20268;-57
2022/08/06 00:34:12;;;;;;;2.53;2.30;;;;;;;;;;5089943;28;20207;-56
2022/08/06 00:36:38;;;;;;;4.07;2.57;;;;;;;;;;5064272;28;20595;-56
2022/08/06 00:39:05;;;;;;;5.33;2.60;;;;;;;;;;5076755;28;20204;-57
2022/08/06 00:41:32;;;;;;;2.60;2.30;;;;;;;;;;5086941;28;20180;-57
2022/08/06 00:43:59;;;;;;;3.97;2.33;;;;;;;;;;5100114;28;20164;-58
2022/08/06 00:46:25;;;;;;;5.00;2.40;;;;;;;;;;5089362;28;20194;-56
2022/08/06 00:48:51;;;;;;;5.70;2.53;;;;;;;;;;5082361;28;20702;-58
2022/08/06 00:51:17;;;;;;;3.53;2.77;;;;;;;;;;5088448;28;20730;-58
2022/08/06 00:53:44;;;;;;;7.27;2.50;;;;;;;;;;5087867;28;20610;-56
2022/08/06 00:56:10;;;;;;;2.43;2.17;;;;;;;;;;5093238;28;20176;-57
2022/08/06 00:58:36;;;;;;;3.00;2.50;;;;;;;;;;5075001;28;20178;-57
2022/08/06 01:01:02;;;;;;;3.67;2.70;;;;;;;;;;5085963;28;20586;-57
2022/08/06 01:03:28;;;;;;;3.37;2.57;;;;;;;;;;5088336;28;20221;-57
2022/08/06 01:05:55;;;;;;;3.37;2.20;;;;;;;;;;5090975;28;20543;-57
2022/08/06 01:08:21;;;;;;;4.43;2.50;;;;;;;;;;5088058;28;20214;-57
2022/08/06 01:10:47;;;;;;;3.20;2.17;;;;;;;;;;5087773;28;20546;-56
2022/08/06 01:13:14;;;;;;;3.33;2.37;;;;;;;;;;5086996;28;20172;-57
2022/08/06 01:15:42;;;;;;;2.60;2.30;;;;;;;;;;5069364;28;20210;-58
2022/08/06 01:18:12;;;;;;;3.53;2.30;;;;;;;;;;5079171;28;20177;-58
2022/08/06 01:20:41;;;;;;;2.40;2.20;;;;;;;;;;5087301;28;22591;-58
2022/08/06 01:23:26;;;;;;;4.17;2.83;;;;;;;;;;5082396;28;20646;-58
2022/08/06 01:25:55;;;;;;;2.50;2.30;;;;;;;;;;5085266;28;20215;-59
2022/08/06 01:28:26;;;;;;;4.80;2.60;;;;;;;;;;5098738;28;20240;-56
2022/08/06 01:30:59;;;;;;;6.40;2.83;;;;;;;;;;5089255;28;20918;-57
2022/08/06 01:33:31;;;;;;;4.17;2.50;;;;;;;;;;5095284;28;20232;-58
2022/08/06 01:36:00;;;;;;;2.77;2.53;;;;;;;;;;5101489;28;20187;-56
2022/08/06 01:38:28;;;;;;;3.43;2.30;;;;;;;;;;5086852;27;20452;-55
2022/08/06 01:40:55;;;;;;;2.50;2.33;;;;;;;;;;5067666;28;20180;-57
2022/08/06 01:43:22;;;;;;;3.00;2.80;;;;;;;;;;5084199;28;20187;-58
2022/08/06 01:45:49;;;;;;;3.20;2.20;;;;;;;;;;5094144;28;20172;-57
2022/08/06 01:48:18;;;;;;;4.53;2.50;;;;;;;;;;5084749;28;20257;-56
2022/08/06 01:50:46;;;;;;;7.13;2.50;;;;;;;;;;5089277;28;20181;-56
2022/08/06 01:53:15;;;;;;;2.83;2.60;;;;;;;;;;5084508;28;20179;-56
2022/08/06 01:55:42;;;;;;;3.77;2.47;;;;;;;;;;5070465;28;20583;-57
2022/08/06 01:58:10;;;;;;;3.53;2.27;;;;;;;;;;5068315;28;20194;-57
2022/08/06 02:00:39;;;;;;;3.00;2.30;;;;;;;;;;5088313;28;20634;-56
2022/08/06 02:03:10;;;;;;;3.87;3.13;;;;;;;;;;5090853;28;20182;-56
2022/08/06 02:05:37;;;;;;;3.60;2.20;;;;;;;;;;5105317;28;20187;-56
2022/08/06 02:08:04;;;;;;;2.40;2.20;;;;;;;;;;5082139;28;20219;-55
2022/08/06 02:10:31;;;;;;;3.33;2.50;;;;;;;;;;5083892;28;20188;-56
2022/08/06 02:12:58;;;;;;;2.63;2.43;;;;;;;;;;5084739;28;20205;-54
2022/08/06 02:15:26;;;;;;;3.00;2.47;;;;;;;;;;5087940;28;20176;-57
2022/08/06 02:17:54;;;;;;;6.03;2.90;;;;;;;;;;5080127;28;20187;-58
2022/08/06 02:20:28;;;;;;;3.63;2.67;;;;;;;;;;5091985;28;20249;-58
2022/08/06 02:22:55;;;;;;;3.00;2.60;;;;;;;;;;5093005;28;20199;-58
2022/08/06 02:25:21;;;;;;;3.60;2.80;;;;;;;;;;5084637;28;20190;-57
2022/08/06 02:27:49;;;;;;;3.93;3.30;;;;;;;;;;5086612;28;20198;-56
2022/08/06 02:30:16;;;;;;;3.47;2.83;;;;;;;;;;5086726;28;20266;-57
2022/08/06 02:32:42;;;;;;;6.93;2.73;;;;;;;;;;5079550;28;20815;-55
2022/08/06 02:35:09;;;;;;;3.50;2.60;;;;;;;;;;5093021;28;20585;-57
2022/08/06 02:37:44;;;;;;;5.87;2.53;;;;;;;;;;5102329;27;20230;-57
2022/08/06 02:40:12;;;;;;;4.60;3.00;;;;;;;;;;5086165;28;20191;-57
2022/08/06 02:42:48;;;;;;;2.30;2.10;;;;;;;;;;5057668;28;20208;-57
2022/08/06 02:45:35;;;;;;;3.23;2.83;;;;;;;;;;5084160;28;20538;-57
2022/08/06 02:48:01;;;;;;;3.87;2.43;;;;;;;;;;5070273;28;20207;-57
2022/08/06 02:50:35;;;;;;;4.03;3.53;;;;;;;;;;5068456;28;20180;-55
2022/08/06 02:53:09;;;;;;;3.00;2.57;;;;;;;;;;5086842;28;20168;-56
2022/08/06 02:55:38;;;;;;;2.93;2.40;;;;;;;;;;5085936;28;20178;-57
2022/08/06 02:58:23;;;;;;;3.63;2.33;;;;;;;;;;5082650;28;20183;-56
2022/08/06 03:00:51;;;;;;;3.20;2.23;;;;;;;;;;5087074;28;20183;-57
2022/08/06 03:03:19;;;;;;;4.50;2.67;;;;;;;;;;5094883;28;20660;-55
2022/08/06 03:05:46;;;;;;;3.27;2.50;;;;;;;;;;5090487;28;20171;-57
2022/08/06 03:08:16;;;;;;;3.30;2.40;;;;;;;;;;5071461;28;20693;-56
2022/08/06 03:10:43;;;;;;;2.87;2.27;;;;;;;;;;5060668;28;20180;-56
2022/08/06 03:13:09;;;;;;;2.40;2.10;;;;;;;;;;5068097;28;20234;-57
2022/08/06 03:15:37;;;;;;;3.00;2.27;;;;;;;;;;5086549;28;20171;-57
2022/08/06 03:18:04;;;;;;;3.87;2.83;;;;;;;;;;5084601;28;20587;-56
2022/08/06 03:20:32;;;;;;;3.10;2.23;;;;;;;;;;5089843;28;20191;-57
2022/08/06 03:22:59;;;;;;;4.13;2.60;;;;;;;;;;5092889;28;20632;-54
2022/08/06 03:25:27;;;;;;;2.60;2.40;;;;;;;;;;5088950;28;20186;-56
2022/08/06 03:27:53;;;;;;;2.50;2.30;;;;;;;;;;5068357;28;20196;-55
2022/08/06 03:30:20;;;;;;;3.90;2.50;;;;;;;;;;5092741;28;20180;-56
2022/08/06 03:32:47;;;;;;;6.17;2.70;;;;;;;;;;5082468;28;20584;-56
2022/08/06 03:35:14;;;;;;;3.90;2.27;;;;;;;;;;5084231;28;20172;-56
2022/08/06 03:37:42;;;;;;;2.90;2.63;;;;;;;;;;5083086;28;20234;-57
2022/08/06 03:40:09;;;;;;;4.63;2.77;;;;;;;;;;5075291;28;20175;-56
2022/08/06 03:42:35;;;;;;;2.30;2.10;;;;;;;;;;5067256;28;20195;-56
2022/08/06 03:45:01;;;;;;;4.03;3.43;;;;;;;;;;5061668;28;20176;-57
2022/08/06 03:47:32;;;;;;;2.53;2.33;;;;;;;;;;5065847;28;20675;-57
2022/08/06 03:50:19;;;;;;;5.47;2.60;;;;;;;;;;5057368;28;20627;-56
2022/08/06 03:52:47;;;;;;;4.37;2.50;;;;;;;;;;5082378;28;20263;-56
2022/08/06 03:55:15;;;;;;;3.27;2.60;;;;;;;;;;5034102;28;20646;-55
2022/08/06 03:57:42;;;;;;;2.60;2.40;;;;;;;;;;5051531;28;20188;-57
2022/08/06 04:00:09;;;;;;;3.53;2.63;;;;;;;;;;5068287;28;20172;-56
2022/08/06 04:02:48;;;;;;;2.40;2.20;;;;;;;;;;5071511;28;20195;-56
2022/08/06 04:05:28;;;;;;;5.20;4.80;;;;;;;;;;5086682;28;20266;-56
2022/08/06 04:08:00;;;;;;;4.17;2.33;;;;;;;;;;5057698;28;20196;-57
2022/08/06 04:10:45;;;;;;;2.90;2.60;;;;;;;;;;5067314;28;20172;-56
2022/08/06 04:13:13;;;;;;;2.97;2.77;;;;;;;;;;5077097;28;20180;-57
2022/08/06 04:15:39;;;;;;;3.73;2.80;;;;;;;;;;5078472;28;20246;-57
2022/08/06 04:18:08;;;;;;;6.30;2.77;;;;;;;;;;5067200;28;20729;-57
2022/08/06 04:20:35;;;;;;;3.67;2.43;;;;;;;;;;5086705;28;20204;-56
2022/08/06 04:23:01;;;;;;;6.27;2.97;;;;;;;;;;5080049;28;20587;-57
2022/08/06 04:25:28;;;;;;;3.07;2.77;;;;;;;;;;5070332;28;20180;-55
2022/08/06 04:27:55;;;;;;;3.57;2.47;;;;;;;;;;5070452;28;20197;-56
2022/08/06 04:30:22;;;;;;;3.13;2.40;;;;;;;;;;5063921;28;20183;-57
2022/08/06 04:32:55;;;;;;;3.47;2.43;;;;;;;;;;5066849;28;20789;-57
2022/08/06 04:35:22;;;;;;;3.23;2.93;;;;;;;;;;5073137;28;20183;-57
2022/08/06 04:37:48;;;;;;;3.17;2.23;;;;;;;;;;5081989;27;20290;-57
2022/08/06 04:40:15;;;;;;;2.57;2.30;;;;;;;;;;5089093;28;20191;-56
2022/08/06 04:42:41;;;;;;;4.20;2.17;;;;;;;;;;5084254;28;20259;-57
2022/08/06 04:45:08;;;;;;;4.60;2.70;;;;;;;;;;5085841;28;20223;-57
2022/08/06 04:47:35;;;;;;;3.57;2.20;;;;;;;;;;5066242;28;20262;-57
2022/08/06 04:50:08;;;;;;;3.87;2.20;;;;;;;;;;5069169;28;20634;-57
2022/08/06 04:52:34;;;;;;;4.67;4.27;;;;;;;;;;5085076;28;20180;-57
2022/08/06 04:55:00;;;;;;;2.87;2.47;;;;;;;;;;5086803;28;20242;-56
2022/08/06 04:57:26;;;;;;;3.70;2.13;;;;;;;;;;5082995;28;20669;-57
2022/08/06 04:59:52;;;;;;;3.37;2.60;;;;;;;;;;5088416;28;20167;-57
2022/08/06 05:02:18;;;;;;;4.40;3.63;;;;;;;;;;5079632;28;20183;-56
2022/08/06 05:04:45;;;;;;;4.73;2.20;;;;;;;;;;5092962;28;20653;-55
2022/08/06 05:07:11;;;;;;;2.67;2.47;;;;;;;;;;5076999;28;20276;-57
2022/08/06 05:09:37;;;;;;;3.40;2.27;;;;;;;;;;5085652;28;20198;-56
2022/08/06 05:12:05;;;;;;;3.40;2.37;;;;;;;;;;5088598;28;20237;-56
2022/08/06 05:14:51;;;;;;;7.00;3.00;;;;;;;;;;5087328;28;20544;-57
2022/08/06 05:17:20;;;;;;;3.03;2.73;;;;;;;;;;5086306;28;20976;-57
2022/08/06 05:19:52;;;;;;;3.10;2.53;;;;;;;;;;5085689;28;20200;-56
2022/08/06 05:22:19;;;;;;;4.43;2.40;;;;;;;;;;5034917;28;20607;-56
2022/08/06 05:24:47;;;;;;;3.10;2.13;;;;;;;;;;5089622;28;20232;-56
2022/08/06 05:27:21;;;;;;;3.70;2.20;;;;;;;;;;5085314;28;20264;-56
2022/08/06 05:29:48;;;;;;;3.20;2.60;;;;;;;;;;5081839;28;20173;-57
2022/08/06 05:32:14;;;;;;;2.63;2.23;;;;;;;;;;5079046;28;20178;-55
2022/08/06 05:34:40;;;;;;;5.63;2.60;;;;;;;;;;5072749;28;20390;-55
2022/08/06 05:37:13;;;;;;;3.37;2.90;;;;;;;;;;5085625;28;20249;-56
2022/08/06 05:39:46;;;;;;;4.07;3.03;;;;;;;;;;5062636;28;20621;-55
2022/08/06 05:42:12;;;;;;;4.07;2.97;;;;;;;;;;5067704;28;20214;-56
2022/08/06 05:44:38;;;;;;;4.97;2.80;;;;;;;;;;5041287;28;20609;-56
2022/08/06 05:47:14;;;;;;;3.80;2.80;;;;;;;;;;5036848;28;20659;-56
2022/08/06 05:49:43;;;;;;;3.80;3.00;;;;;;;;;;5061695;28;20188;-56
2022/08/06 05:52:09;;;;;;;4.57;2.87;;;;;;;;;;5049686;28;20228;-55
2022/08/06 05:54:37;;;;;;;5.87;3.37;;;;;;;;;;5058666;28;20226;-57
2022/08/06 05:57:06;;;;;;;8.57;4.20;;;;;;;;;;5036609;28;20797;-57
2022/08/06 05:59:34;;;;;;;5.00;3.53;;;;;;;;;;5052554;28;20271;-57
2022/08/06 06:02:01;;;;;;;4.67;3.30;;;;;;;;;;5032410;28;20172;-56
2022/08/06 06:04:27;;;;;;;3.90;3.60;;;;;;;;;;5052121;28;20177;-56
2022/08/06 06:06:53;;;;;;;5.80;3.37;;;;;;;;;;5049356;28;20184;-55
2022/08/06 06:09:19;;;;;;;8.17;3.50;;;;;;;;;;5054722;28;20900;-57
2022/08/06 06:11:45;;;;;;;4.43;3.33;;;;;;;;;;5053278;28;20585;-55
2022/08/06 06:14:25;;;;;;;5.60;3.17;;;;;;;;;;5061552;28;20678;-58
2022/08/06 06:17:09;;;;;;;4.27;2.93;;;;;;;;;;5065774;28;20184;-55
2022/08/06 06:19:43;;;;;;;5.40;3.33;;;;;;;;;;5048391;28;20190;-54
2022/08/06 06:22:16;;;;;;;4.70;3.30;;;;;;;;;;5057143;28;20180;-57
2022/08/06 06:24:49;;;;;;;3.47;2.70;;;;;;;;;;5049547;28;20169;-57
2022/08/06 06:27:24;;;;;;;3.87;2.90;;;;;;;;;;5037661;28;20196;-56
2022/08/06 06:30:02;;;;;;;4.33;2.80;;;;;;;;;;5049920;28;20773;-57
2022/08/06 06:32:31;;;;;;;5.07;2.80;;;;;;;;;;5037690;28;20180;-56
2022/08/06 06:35:09;;;;;;;2.57;2.37;;;;;;;;;;5058725;28;20177;-55
2022/08/06 06:37:55;;;;;;;5.43;3.33;;;;;;;;;;5050491;28;20222;-56
2022/08/06 06:40:33;;;;;;;4.63;3.30;;;;;;;;;;5092655;28;20187;-57
2022/08/06 06:43:02;;;;;;;3.77;3.00;;;;;;;;;;5089373;28;20567;-57
2022/08/06 06:45:34;;;;;;;3.57;2.73;;;;;;;;;;5094005;28;20263;-57
2022/08/06 06:48:09;;;;;;;3.57;2.97;;;;;;;;;;5088297;28;20608;-57
2022/08/06 06:50:38;;;;;;;6.00;2.70;;;;;;;;;;5055151;28;20175;-56
2022/08/06 06:53:05;;;;;;;3.23;2.70;;;;;;;;;;5058683;28;20176;-58
2022/08/06 06:55:36;;;;;;;4.63;2.30;;;;;;;;;;5083208;28;20646;-56
2022/08/06 06:58:15;;;;;;;3.10;2.30;;;;;;;;;;5061926;28;20204;-58
2022/08/06 07:00:42;;;;;;;3.87;2.33;;;;;;;;;;5083476;28;20176;-57
2022/08/06 07:03:09;;;;;;;5.13;2.23;;;;;;;;;;5082324;28;20669;-57
2022/08/06 07:05:36;;;;;;;5.80;2.33;;;;;;;;;;5084671;28;20180;-56
2022/08/06 07:08:03;;;;;;;2.73;2.07;;;;;;;;;;5078695;28;20192;-57
2022/08/06 07:10:31;;;;;;;2.50;2.27;;;;;;;;;;5071786;28;20180;-57
2022/08/06 07:12:59;;;;;;;2.07;1.83;;;;;;;;;;5087219;28;20175;-55
2022/08/06 07:15:25;;;;;;;4.17;2.20;;;;;;;;;;5071903;28;20291;-57
2022/08/06 07:17:52;;;;;;;4.20;2.03;;;;;;;;;;5086496;28;20278;-54
2022/08/06 07:20:24;;;;;;;6.33;2.20;;;;;;;;;;5091937;28;20200;-57
2022/08/06 07:22:51;;;;;;;2.70;1.80;;;;;;;;;;5072010;28;21030;-59
2022/08/06 07:25:17;;;;;;;4.73;2.07;;;;;;;;;;5062387;28;20175;-58
2022/08/06 07:27:46;;;;;;;2.30;1.60;;;;;;;;;;5088850;28;20574;-58
2022/08/06 07:30:13;;;;;;;2.87;2.30;;;;;;;;;;5068572;28;20181;-57
2022/08/06 07:32:40;;;;;;;71.90;9.57;;;;;;;;;;5092156;28;20169;-58
2022/08/06 07:35:08;;;;;;;3.50;2.60;;;;;;;;;;5085914;28;20635;-58
2022/08/06 07:37:35;;;;;;;3.77;1.70;;;;;;;;;;5094107;28;20181;-57
2022/08/06 07:40:02;;;;;;;3.23;1.80;;;;;;;;;;5084153;28;20191;-57
2022/08/06 07:42:29;;;;;;;4.50;2.13;;;;;;;;;;5079937;28;20217;-56
2022/08/06 07:44:58;;;;;;;3.27;1.50;;;;;;;;;;5079194;28;20543;-58
2022/08/06 07:47:41;;;;;;;2.17;1.63;;;;;;;;;;5089871;28;20229;-59
2022/08/06 07:50:10;;;;;;;1.53;1.40;;;;;;;;;;5049267;28;20187;-57
2022/08/06 07:52:37;;;;;;;1.97;1.40;;;;;;;;;;5064296;28;20207;-59
2022/08/06 07:55:03;;;;;;;1.73;1.27;;;;;;;;;;5090551;28;20168;-58
2022/08/06 07:57:31;;;;;;;1.60;1.40;;;;;;;;;;5089919;28;20605;-58
2022/08/06 07:59:58;;;;;;;1.30;1.20;;;;;;;;;;5069259;28;20509;-58
2022/08/06 08:02:25;;;;;;;4.60;1.50;;;;;;;;;;5079698;28;20179;-57
2022/08/06 08:07:37;;;;;;;12.13;2.60;;;;;;;;;;5093093;28;20254;-60
2022/08/06 08:10:03;;;;;;;1.67;1.50;;;;;;;;;;5087309;28;20180;-59
2022/08/06 08:12:29;;;;;;;3.23;1.20;;;;;;;;;;5102823;28;20170;-59
2022/08/06 08:14:56;;;;;;;21.33;4.50;;;;;;;;;;5088170;28;20236;-58
2022/08/06 08:17:22;;;;;;;17.63;3.90;;;;;;;;;;5067549;28;20177;-58
2022/08/06 08:19:49;;;;;;;1.60;1.40;;;;;;;;;;5075869;28;20472;-60
2022/08/06 08:22:16;;;;;;;1.47;1.37;;;;;;;;;;5086331;28;20637;-58
2022/08/06 08:24:44;;;;;;;3.10;2.10;;;;;;;;;;5081420;28;20322;-58
2022/08/06 08:27:10;;;;;;;1.37;1.30;;;;;;;;;;5058718;28;20195;-58
2022/08/06 08:29:40;;;;;;;3.63;1.50;;;;;;;;;;5088577;28;20709;-56
2022/08/06 08:32:07;;;;;;;1.40;1.30;;;;;;;;;;5071799;28;20175;-55
2022/08/06 08:34:35;;;;;;;4.70;2.17;;;;;;;;;;5073958;28;20233;-56
2022/08/06 08:37:01;;;;;;;19.37;3.37;;;;;;;;;;5088318;28;20170;-57
2022/08/06 08:39:28;;;;;;;60.73;8.30;;;;;;;;;;5059026;28;20216;-55
2022/08/06 08:42:08;;;;;;;21.53;4.60;;;;;;;;;;5082769;28;20168;-55
2022/08/06 08:44:34;;;;;;;5.47;1.97;;;;;;;;;;5086751;28;20194;-56
2022/08/06 08:47:01;;;;;;;1.80;1.63;;;;;;;;;;5067714;28;20580;-56
2022/08/06 08:49:36;;;;;;;1.60;1.50;;;;;;;;;;5064453;28;20681;-55
2022/08/06 08:52:03;;;;;;;4.37;2.23;;;;;;;;;;5082280;28;20176;-57
2022/08/06 08:54:35;;;;;;;3.87;1.70;;;;;;;;;;5087172;28;20231;-59
2022/08/06 08:57:02;;;;;;;1.63;1.43;;;;;;;;;;5086628;28;20259;-59
2022/08/06 08:59:28;;;;;;;1.30;1.20;;;;;;;;;;5081533;28;20177;-55
2022/08/06 09:01:58;;;;;;;1.90;1.40;;;;;;;;;;5083895;28;20509;-56
2022/08/06 09:04:24;;;;;;;4.67;1.50;;;;;;;;;;5090986;28;20266;-56
2022/08/06 09:06:51;;;;;;;1.60;1.50;;;;;;;;;;5098358;28;20164;-58
2022/08/06 09:09:18;;;;;;;2.03;1.27;;;;;;;;;;5059666;28;20191;-58
2022/08/06 09:11:44;;;;;;;2.43;1.50;;;;;;;;;;5052106;28;20188;-58
2022/08/06 09:14:10;;;;;;;1.70;1.60;;;;;;;;;;5084385;28;20177;-59
2022/08/06 09:16:37;;;;;;;1.77;1.40;;;;;;;;;;5079582;28;20240;-58
2022/08/06 09:19:05;;;;;;;6.23;2.83;;;;;;;;;;5078586;28;21325;-58
2022/08/06 09:21:32;;;;;;;10.73;4.30;;;;;;;;;;5075674;28;20192;-59
2022/08/06 09:23:58;;;;;;;2.40;1.77;;;;;;;;;;5061611;28;20168;-59
2022/08/06 09:26:25;;;;;;;2.90;2.20;;;;;;;;;;5090040;28;20661;-58
2022/08/06 09:28:51;;;;;;;4.17;2.40;;;;;;;;;;5084765;28;20188;-59
2022/08/06 09:31:18;;;;;;;2.20;1.40;;;;;;;;;;5082409;28;20175;-58
2022/08/06 09:33:54;;;;;;;1.47;1.37;;;;;;;;;;5069767;28;20681;-58
2022/08/06 09:36:20;;;;;;;1.83;1.73;;;;;;;;;;5082053;28;20179;-55
2022/08/06 09:38:47;;;;;;;2.87;1.97;;;;;;;;;;5073618;28;20253;-60
2022/08/06 09:41:14;;;;;;;1.70;1.60;;;;;;;;;;5082031;28;20589;-59
2022/08/06 09:43:40;;;;;;;1.30;1.20;;;;;;;;;;5060886;28;20180;-61
2022/08/06 09:46:07;;;;;;;1.53;1.40;;;;;;;;;;5079743;28;20183;-57
2022/08/06 09:48:34;;;;;;;2.87;1.60;;;;;;;;;;5090172;28;20406;-58
2022/08/06 09:51:00;;;;;;;1.60;1.50;;;;;;;;;;5084766;28;20984;-54
2022/08/06 09:53:26;;;;;;;2.53;2.00;;;;;;;;;;5067918;28;20179;-57
2022/08/06 09:55:53;;;;;;;3.80;1.30;;;;;;;;;;5087822;28;20229;-59
2022/08/06 09:58:46;;;;;;;1.53;1.43;;;;;;;;;;5061878;28;20879;-56
2022/08/06 10:01:13;;;;;;;1.97;1.50;;;;;;;;;;5060990;28;20546;-58
2022/08/06 10:03:40;;;;;;;1.30;1.30;;;;;;;;;;5052214;28;20184;-57
2022/08/06 10:06:08;;;;;;;2.00;1.73;;;;;;;;;;5070152;28;20176;-58
2022/08/06 10:08:34;;;;;;;1.70;1.60;;;;;;;;;;5078783;28;20192;-58
2022/08/06 10:11:02;;;;;;;2.30;2.10;;;;;;;;;;5082798;28;20231;-58
2022/08/06 10:13:29;;;;;;;2.07;1.97;;;;;;;;;;5069349;28;20696;-58
2022/08/06 10:15:56;;;;;;;2.20;1.60;;;;;;;;;;5086595;28;20179;-58
2022/08/06 10:18:42;;;;;;;1.40;1.30;;;;;;;;;;5066838;28;20186;-57
2022/08/06 10:21:12;;;;;;;2.53;1.90;;;;;;;;;;5055944;28;20555;-56
2022/08/06 10:23:40;;;;;;;1.70;1.60;;;;;;;;;;5082370;28;20669;-58
2022/08/06 10:26:08;;;;;;;2.17;1.50;;;;;;;;;;5063261;28;20531;-57
2022/08/06 10:28:35;;;;;;;1.40;1.30;;;;;;;;;;5081712;28;20268;-57
2022/08/06 10:31:05;;;;;;;2.13;1.70;;;;;;;;;;5091513;28;20225;-55
2022/08/06 10:33:33;;;;;;;1.60;1.50;;;;;;;;;;5060595;28;20241;-59
2022/08/06 10:36:19;;;;;;;1.47;1.37;;;;;;;;;;5062431;28;20168;-59
2022/08/06 10:38:46;;;;;;;2.33;1.30;;;;;;;;;;5081352;28;20728;-58
2022/08/06 10:41:13;;;;;;;1.50;1.40;;;;;;;;;;5075653;28;20168;-58
2022/08/06 10:43:40;;;;;;;2.27;2.07;;;;;;;;;;5071757;28;20179;-59
2022/08/06 10:46:08;;;;;;;1.40;1.30;;;;;;;;;;5074807;28;20665;-59
2022/08/06 10:48:37;;;;;;;2.50;2.00;;;;;;;;;;5096413;28;20204;-60
2022/08/06 10:51:04;;;;;;;1.77;1.67;;;;;;;;;;5091043;28;20642;-60
2022/08/06 10:53:32;;;;;;;1.63;1.53;;;;;;;;;;5048570;28;20186;-59
2022/08/06 10:56:07;;;;;;;2.03;1.70;;;;;;;;;;5103671;28;20203;-60
2022/08/06 10:58:34;;;;;;;1.43;1.33;;;;;;;;;;5090813;28;20252;-60
2022/08/06 11:01:03;;;;;;;1.87;1.77;;;;;;;;;;5093955;28;20208;-59
2022/08/06 11:03:38;;;;;;;2.83;2.00;;;;;;;;;;5067514;28;20238;-57
2022/08/06 11:06:19;;;;;;;1.73;1.63;;;;;;;;;;5080658;28;20298;-60
2022/08/06 11:08:52;;;;;;;2.30;2.20;;;;;;;;;;5087096;28;20283;-61
2022/08/06 11:11:51;;;;;;;2.17;1.73;;;;;;;;;;5071572;28;20702;-61
2022/08/06 11:14:21;;;;;;;3.47;1.87;;;;;;;;;;5042556;28;20203;-59
2022/08/06 11:16:57;;;;;;;2.93;2.13;;;;;;;;;;5095308;28;20683;-59
2022/08/06 11:19:43;;;;;;;2.07;1.90;;;;;;;;;;5065826;28;20177;-60
2022/08/06 11:22:29;;;;;;;1.77;1.63;;;;;;;;;;5095139;28;20169;-61
2022/08/06 11:24:58;;;;;;;1.47;1.37;;;;;;;;;;5068377;28;20191;-61
2022/08/06 11:27:43;;;;;;;2.03;1.93;;;;;;;;;;5090053;28;20189;-61
2022/08/06 11:30:13;;;;;;;5.03;1.70;;;;;;;;;;5085871;28;20655;-62
2022/08/06 11:32:50;;;;;;;1.77;1.67;;;;;;;;;;5073430;28;20707;-64
2022/08/06 11:35:39;;;;;;;1.80;1.70;;;;;;;;;;5058866;28;20185;-62
2022/08/06 11:38:13;;;;;;;1.90;1.80;;;;;;;;;;5056357;27;20206;-63
2022/08/06 11:41:00;;;;;;;1.40;1.30;;;;;;;;;;5036400;28;20508;-65
2022/08/06 11:43:41;;;;;;;1.70;1.60;;;;;;;;;;5068883;28;20237;-63
2022/08/06 11:46:27;;;;;;;1.60;1.50;;;;;;;;;;5063164;28;20674;-58
2022/08/06 11:48:59;;;;;;;2.50;1.97;;;;;;;;;;5074616;28;22050;-62
2022/08/06 11:51:52;;;;;;;2.70;2.50;;;;;;;;;;5090905;28;20233;-60
2022/08/06 11:54:32;;;;;;;2.47;1.90;;;;;;;;;;5075869;28;20183;-63
2022/08/06 11:57:01;;;;;;;1.63;1.50;;;;;;;;;;5082192;28;20164;-63
2022/08/06 11:59:38;;;;;;;3.60;3.40;;;;;;;;;;5085588;28;20176;-62
2022/08/06 12:02:08;;;;;;;1.90;1.80;;;;;;;;;;5053884;28;20193;-64
2022/08/06 12:04:40;;;;;;;1.97;1.87;;;;;;;;;;5082879;28;20165;-65
2022/08/06 12:07:34;;;;;;;2.37;1.77;;;;;;;;;;5087605;28;20519;-63
2022/08/06 12:10:00;;;;;;;1.70;1.60;;;;;;;;;;5081626;28;20891;-66
2022/08/06 12:12:30;;;;;;;2.03;1.83;;;;;;;;;;5092708;28;20183;-61
2022/08/06 12:14:57;;;;;;;2.87;2.00;;;;;;;;;;5086260;28;20272;-59
2022/08/06 12:17:23;;;;;;;2.33;1.70;;;;;;;;;;5061990;28;20333;-61
2022/08/06 12:19:51;;;;;;;2.77;1.90;;;;;;;;;;5072871;28;20211;-59
2022/08/06 12:22:19;;;;;;;4.20;3.97;;;;;;;;;;5081313;28;20187;-60
2022/08/06 12:24:46;;;;;;;1.80;1.70;;;;;;;;;;5087538;28;20665;-63
2022/08/06 12:27:12;;;;;;;3.10;1.60;;;;;;;;;;5085392;28;20191;-62
2022/08/06 12:29:40;;;;;;;1.90;1.80;;;;;;;;;;5085004;28;20183;-62
2022/08/06 12:32:27;;;;;;;2.43;1.70;;;;;;;;;;5073237;28;20283;-62
2022/08/06 12:34:53;;;;;;;1.98;1.77;;;;;;;;;;5077114;28;20458;-61
2022/08/06 12:37:20;;;;;;;2.43;1.83;;;;;;;;;;5077667;28;20180;-59
2022/08/06 12:42:32;;;;;;;1.70;1.60;;;;;;;;;;5083444;28;20180;-57
2022/08/06 12:44:58;;;;;;;1.90;1.80;;;;;;;;;;5085634;28;20535;-63
2022/08/06 12:47:25;;;;;;;1.60;1.50;;;;;;;;;;5078606;28;20697;-63
2022/08/06 12:49:52;;;;;;;2.80;2.10;;;;;;;;;;5065115;28;20741;-60
2022/08/06 12:52:22;;;;;;;1.87;1.70;;;;;;;;;;5103850;28;20271;-59
2022/08/06 12:54:49;;;;;;;3.73;2.50;;;;;;;;;;5063508;28;20221;-60
2022/08/06 12:57:22;;;;;;;1.83;1.70;;;;;;;;;;5088978;28;20716;-61
2022/08/06 12:59:49;;;;;;;1.90;1.80;;;;;;;;;;5077173;28;20173;-61
2022/08/06 13:02:19;;;;;;;1.70;1.50;;;;;;;;;;5084121;28;20191;-62
2022/08/06 13:04:54;;;;;;;1.70;1.60;;;;;;;;;;5085571;28;20238;-64
2022/08/06 13:07:21;;;;;;;1.70;1.60;;;;;;;;;;5084871;28;20202;-64
2022/08/06 13:09:47;;;;;;;2.43;1.83;;;;;;;;;;5080998;28;20231;-62
2022/08/06 13:12:14;;;;;;;1.93;1.73;;;;;;;;;;5080059;28;20179;-63
2022/08/06 13:14:56;;;;;;;2.50;1.90;;;;;;;;;;5092404;28;20609;-63
2022/08/06 13:17:23;;;;;;;2.10;1.90;;;;;;;;;;5077536;28;20685;-61
2022/08/06 13:19:53;;;;;;;1.70;1.60;;;;;;;;;;5088340;28;20217;-61
2022/08/06 13:22:19;;;;;;;1.77;1.67;;;;;;;;;;5096165;28;20195;-62
2022/08/06 13:24:45;;;;;;;2.03;1.60;;;;;;;;;;5085274;28;20564;-62
2022/08/06 13:27:11;;;;;;;1.80;1.70;;;;;;;;;;5071351;28;20452;-65
2022/08/06 13:29:38;;;;;;;2.13;1.60;;;;;;;;;;5088000;28;20261;-60
2022/08/06 13:32:05;;;;;;;1.77;1.60;;;;;;;;;;5087726;28;20175;-64
2022/08/06 13:34:45;;;;;;;1.93;1.70;;;;;;;;;;5089830;28;20172;-63
2022/08/06 13:37:11;;;;;;;1.60;1.50;;;;;;;;;;5067089;28;20183;-63
2022/08/06 13:39:49;;;;;;;1.90;1.70;;;;;;;;;;5050863;28;20227;-62
2022/08/06 13:42:15;;;;;;;2.13;2.03;;;;;;;;;;5065207;28;20669;-63
2022/08/06 13:44:44;;;;;;;1.67;1.57;;;;;;;;;;5079633;28;20639;-63
2022/08/06 13:47:13;;;;;;;2.50;1.60;;;;;;;;;;5074829;28;20176;-62
2022/08/06 13:49:39;;;;;;;2.73;1.70;;;;;;;;;;5084456;28;20175;-62
2022/08/06 13:52:06;;;;;;;1.70;1.60;;;;;;;;;;5085596;28;20705;-63
2022/08/06 13:54:33;;;;;;;2.33;2.13;;;;;;;;;;5082305;28;20176;-61
2022/08/06 13:56:59;;;;;;;2.00;1.70;;;;;;;;;;5080538;28;20177;-60
2022/08/06 13:59:28;;;;;;;2.60;1.87;;;;;;;;;;5053653;28;20658;-64
2022/08/06 14:01:56;;;;;;;3.13;1.77;;;;;;;;;;5078591;28;20203;-61
2022/08/06 14:04:22;;;;;;;4.30;3.23;;;;;;;;;;5083320;28;20176;-64
2022/08/06 14:06:49;;;;;;;1.93;1.40;;;;;;;;;;5066491;28;20184;-60
2022/08/06 14:09:16;;;;;;;1.60;1.50;;;;;;;;;;5049165;28;20564;-63
2022/08/06 14:11:43;;;;;;;1.80;1.70;;;;;;;;;;5080805;28;20603;-62
2022/08/06 14:14:09;;;;;;;2.47;1.70;;;;;;;;;;5081687;28;20669;-64
2022/08/06 14:16:35;;;;;;;2.00;1.90;;;;;;;;;;5085415;28;20176;-63
2022/08/06 14:19:01;;;;;;;2.10;1.90;;;;;;;;;;5081578;28;20180;-60
2022/08/06 14:21:28;;;;;;;1.70;1.60;;;;;;;;;;5069212;28;20542;-64
2022/08/06 14:23:54;;;;;;;2.50;1.70;;;;;;;;;;5066532;28;20180;-62
2022/08/06 14:26:20;;;;;;;1.70;1.60;;;;;;;;;;5065755;28;20677;-66
2022/08/06 14:28:46;;;;;;;2.23;1.73;;;;;;;;;;5081909;28;20203;-65
2022/08/06 14:31:13;;;;;;;1.80;1.70;;;;;;;;;;5049394;28;20179;-60
2022/08/06 14:33:40;;;;;;;2.97;1.60;;;;;;;;;;5066395;28;20168;-67
2022/08/06 14:36:06;;;;;;;1.63;1.50;;;;;;;;;;5085087;28;20180;-67
2022/08/06 14:38:32;;;;;;;1.50;1.40;;;;;;;;;;5067832;28;20375;-66
2022/08/06 14:46:30;;;;;;;2.27;1.87;;;;;;;;;;5086641;28;20194;-66
2022/08/06 14:48:56;;;;;;;1.87;1.40;;;;;;;;;;5076537;28;20208;-66
2022/08/06 14:51:22;;;;;;;2.07;1.90;;;;;;;;;;5067997;28;20176;-62
2022/08/06 14:53:48;;;;;;;1.87;1.77;;;;;;;;;;5073963;28;20263;-68
2022/08/06 14:56:15;;;;;;;4.43;2.03;;;;;;;;;;5051833;28;20215;-64
2022/08/06 14:58:43;;;;;;;1.93;1.73;;;;;;;;;;5058767;28;20207;-64
2022/08/06 15:01:09;;;;;;;1.40;1.30;;;;;;;;;;5101907;28;20190;-65
2022/08/06 15:03:38;;;;;;;2.80;1.70;;;;;;;;;;5084906;28;20176;-66
2022/08/06 15:06:04;;;;;;;1.80;1.70;;;;;;;;;;5070467;28;20180;-65
2022/08/06 15:08:31;;;;;;;1.73;1.40;;;;;;;;;;5084421;28;20746;-66